Terminal Aerodrome Forecast
Issued by NWS

Home | Current Version | Previous Version | Text Only | Print | Product List | Glossary On
Versions: 1 2 3 4 5 6 7 8 9 10 11 12 13 14 15 16
000
FTUS45 KSLC 221120
TAFOGD
TAF
KOGD 221120Z 2212/2312 15006KT P6SM BKN060
     FM221700 24006KT P6SM SCT060
     FM230300 15006KT P6SM SCT060=

USA.gov is the U.S. government's official web portal to all federal, state and local government web resources and services.